SCRG

Rancagua de La Independencia Airport

Airport
ICAO code
SCRG
IATA Code
QRC
Summary
ICAO Region
CARSAM
ICAO Territory
Location

Rancagua, Libertador General Bernardo O'Higgins

Serving
Rancagua
Elevation
1446 ft
Coordinates
34° 10' 25" S , 70° 46' 32" W
KCC
Csb
Metar
Observation
SCRG 131500Z 00000KT 5000 HZ NSC 11/05 Q1023
Station
DE LA INDEPENDEN
Date/Time
2022-08-13 15:00:00
Wind direction
Wind speed
00 kts
Lowest cloud amount
nil significant cloud
Temperature
11°C
Dew point
5°C
Humidity
66%
QNH
1023 hPa
Weather condition
n/a

Civil/military airport located in Rancagua, Libertador General Bernado O'Higgins, Chile.

Climatology

Temperate mediterranean climate (Köppen climate classification Csb)

Runways

Designator Length Width Surface Rops
3/21 1650 23 ASP No/No

Airport map

Aerial View

SKYbrary Partners:

Safety knowledge contributed by: